Time;durP1;ratioP1;P1;durP2;ratioP2;P2;SDS_P1;SDS_P2;PMS_P1;PMS_P2;Temp;Humidity;BMP_temperature;BMP_pressure;BME280_temperature;BME280_humidity;BME280_pressure;Samples;Min_cycle;Max_cycle;Signal;HPM_P1;HPM_P2
2023/01/04 00:01:19;;;;;;;5.45;1.27;;;13.80;79.80;;;;;;5022124;28;20092;-81
2023/01/04 00:04:03;;;;;;;5.25;1.48;;;13.80;79.80;;;;;;5015526;28;20080;-81
2023/01/04 00:06:48;;;;;;;4.05;1.52;;;13.80;79.80;;;;;;5016135;28;20068;-81
2023/01/04 00:09:33;;;;;;;4.55;1.52;;;13.80;79.80;;;;;;5015759;28;20040;-82
2023/01/04 00:12:17;;;;;;;5.28;1.42;;;13.80;79.80;;;;;;5020579;28;20112;-81
2023/01/04 00:15:03;;;;;;;4.30;1.30;;;13.80;79.80;;;;;;5014812;28;20092;-82
2023/01/04 00:17:47;;;;;;;6.65;2.75;;;13.80;79.80;;;;;;5009879;28;20564;-83
2023/01/04 00:20:32;;;;;;;6.07;1.55;;;13.80;79.80;;;;;;5018456;28;20063;-82
2023/01/04 00:23:16;;;;;;;3.38;1.65;;;13.80;79.80;;;;;;5023551;28;20045;-82
2023/01/04 00:26:05;;;;;;;5.35;1.50;;;13.80;79.80;;;;;;5014416;28;20060;-81
2023/01/04 00:28:58;;;;;;;7.35;2.15;;;13.80;79.90;;;;;;5013289;28;20037;-82
2023/01/04 00:31:44;;;;;;;8.32;2.70;;;13.80;79.80;;;;;;5015243;28;20057;-82
2023/01/04 00:34:28;;;;;;;4.90;1.42;;;13.80;79.80;;;;;;5014191;28;20041;-82
2023/01/04 00:37:12;;;;;;;7.93;1.90;;;13.80;79.80;;;;;;5006696;28;20064;-81
2023/01/04 00:39:58;;;;;;;6.57;1.48;;;13.80;79.80;;;;;;5011241;28;20076;-82
2023/01/04 00:42:43;;;;;;;4.68;1.58;;;13.80;79.80;;;;;;5018913;28;20063;-82
2023/01/04 00:45:27;;;;;;;6.53;1.33;;;13.80;79.80;;;;;;5011533;28;20052;-83
2023/01/04 00:48:12;;;;;;;5.15;1.45;;;13.80;79.80;;;;;;5008696;28;20068;-83
2023/01/04 00:50:58;;;;;;;3.83;1.80;;;13.80;79.70;;;;;;5012765;28;20060;-82
2023/01/04 00:53:43;;;;;;;5.43;1.60;;;13.80;79.70;;;;;;5012289;28;20088;-80
2023/01/04 00:56:29;;;;;;;4.68;1.35;;;13.80;79.70;;;;;;5008111;28;20123;-81
2023/01/04 00:59:15;;;;;;;7.65;1.98;;;13.80;79.70;;;;;;5006886;28;21000;-81
2023/01/04 01:02:00;;;;;;;6.13;2.17;;;13.80;79.70;;;;;;5007260;28;20274;-81
2023/01/04 01:04:45;;;;;;;3.47;1.40;;;13.80;79.70;;;;;;5014648;28;20116;-81
2023/01/04 01:07:29;;;;;;;7.07;2.10;;;13.80;79.70;;;;;;5014614;28;20068;-82
2023/01/04 01:10:15;;;;;;;4.35;1.65;;;13.80;79.70;;;;;;5012167;28;20880;-82
2023/01/04 01:13:00;;;;;;;5.00;1.33;;;13.80;79.70;;;;;;5005236;28;20036;-82
2023/01/04 01:15:44;;;;;;;5.13;1.33;;;13.80;79.70;;;;;;5012052;28;20049;-81
2023/01/04 01:18:29;;;;;;;7.07;1.40;;;13.80;79.70;;;;;;5012868;28;20056;-82
2023/01/04 01:21:18;;;;;;;5.43;1.42;;;13.80;79.70;;;;;;5026641;28;20049;-90
2023/01/04 01:24:03;;;;;;;5.93;2.45;;;13.80;79.70;;;;;;5010743;28;20102;-81
2023/01/04 01:26:47;;;;;;;5.95;1.45;;;13.80;79.80;;;;;;5011457;28;20076;-83
2023/01/04 01:29:32;;;;;;;4.90;2.15;;;13.80;79.80;;;;;;5015706;28;20044;-84
2023/01/04 01:32:16;;;;;;;4.20;1.27;;;13.80;79.80;;;;;;5004015;28;20057;-83
2023/01/04 01:35:01;;;;;;;5.22;1.77;;;13.80;79.80;;;;;;5008209;28;20499;-85
2023/01/04 01:37:45;;;;;;;7.07;1.40;;;13.80;79.80;;;;;;5006768;28;20077;-85
2023/01/04 01:40:30;;;;;;;3.75;1.80;;;13.80;79.90;;;;;;5006859;28;20069;-83
2023/01/04 01:43:20;;;;;;;5.75;1.55;;;13.80;79.90;;;;;;5012666;28;20053;-84
2023/01/04 01:46:04;;;;;;;5.38;1.80;;;13.80;79.90;;;;;;5011746;28;20141;-83
2023/01/04 01:48:53;;;;;;;4.15;1.75;;;13.80;79.90;;;;;;4994466;28;20049;-83
2023/01/04 01:51:40;;;;;;;3.72;1.25;;;13.80;79.90;;;;;;5003347;28;20068;-82
2023/01/04 01:54:39;;;;;;;5.45;2.15;;;13.80;79.90;;;;;;5004583;28;20056;-82
2023/01/04 01:57:26;;;;;;;2.95;1.30;;;13.80;79.90;;;;;;5014294;28;20508;-81
2023/01/04 02:00:13;;;;;;;6.22;1.98;;;13.80;79.90;;;;;;5007663;28;20119;-80
2023/01/04 02:02:59;;;;;;;4.88;1.80;;;13.80;79.80;;;;;;5018086;28;20045;-82
2023/01/04 02:05:45;;;;;;;6.38;1.45;;;13.80;79.90;;;;;;5013053;28;20540;-82
2023/01/04 02:08:30;;;;;;;8.15;2.00;;;13.80;79.90;;;;;;5012310;28;20075;-82
2023/01/04 02:11:14;;;;;;;4.40;1.02;;;13.80;79.90;;;;;;5011520;28;20052;-83
2023/01/04 02:17:08;;;;;;;7.25;1.90;;;13.80;80.00;;;;;;5011365;28;20044;-84
2023/01/04 02:20:24;;;;;;;5.00;1.55;;;13.80;79.90;;;;;;5017019;28;20523;-84
2023/01/04 02:23:20;;;;;;;6.55;2.05;;;13.80;80.00;;;;;;5009973;28;20123;-84
2023/01/04 02:26:44;;;;;;;3.88;1.40;;;13.80;80.00;;;;;;5010666;28;20080;-84
2023/01/04 02:29:31;;;;;;;3.75;1.60;;;13.80;80.00;;;;;;5004969;28;20041;-84
2023/01/04 02:32:34;;;;;;;4.18;1.85;;;13.80;80.00;;;;;;5014938;28;20049;-83
2023/01/04 02:35:29;;;;;;;4.07;1.13;;;13.80;80.10;;;;;;5020992;28;20168;-83
2023/01/04 02:38:20;;;;;;;4.88;1.60;;;13.70;79.90;;;;;;5008948;28;20037;-84
2023/01/04 02:41:23;;;;;;;4.38;1.60;;;13.70;79.90;;;;;;5021372;28;20126;-84
2023/01/04 02:50:49;;;;;;;2.17;0.95;;;13.70;80.00;;;;;;5013581;28;20040;-85
2023/01/04 02:53:39;;;;;;;2.30;0.80;;;13.80;80.20;;;;;;5004701;28;20052;-86
2023/01/04 02:56:43;;;;;;;3.28;1.13;;;13.70;80.50;;;;;;5015308;28;20044;-83
2023/01/04 03:00:09;;;;;;;3.88;0.90;;;13.80;80.30;;;;;;5010590;28;20134;-83
2023/01/04 03:06:45;;;;;;;3.97;1.70;;;13.70;80.10;;;;;;5000634;28;20155;-83
2023/01/04 03:09:39;;;;;;;3.15;1.48;;;13.80;80.30;;;;;;5023269;28;20072;-84
2023/01/04 03:12:31;;;;;;;1.23;0.80;;;13.80;80.20;;;;;;5011828;28;20072;-83
2023/01/04 03:15:23;;;;;;;3.40;1.30;;;13.80;80.30;;;;;;5025707;28;20049;-84
2023/01/04 03:18:19;;;;;;;2.42;1.13;;;13.80;80.40;;;;;;5025649;28;20053;-84
2023/01/04 03:21:06;;;;;;;1.02;0.68;;;13.80;80.40;;;;;;5022413;28;20048;-84
2023/01/04 03:36:25;;;;;;;2.92;1.00;;;13.80;80.50;;;;;;5008734;28;20107;-82
2023/01/04 03:49:24;;;;;;;1.55;0.60;;;13.80;80.70;;;;;;5002074;28;20066;-83
2023/01/04 03:52:09;;;;;;;1.33;0.80;;;13.80;80.70;;;;;;5014046;28;20453;-83
2023/01/04 03:54:56;;;;;;;1.73;0.73;;;13.70;80.50;;;;;;5019238;28;20072;-83
2023/01/04 03:57:44;;;;;;;1.67;0.63;;;13.80;80.70;;;;;;5014629;28;20476;-84
2023/01/04 04:00:33;;;;;;;2.42;0.57;;;13.80;80.80;;;;;;5010002;28;20040;-83
2023/01/04 04:03:17;;;;;;;1.80;0.70;;;13.80;80.80;;;;;;5015404;28;20091;-84
2023/01/04 04:09:05;;;;;;;0.82;0.45;;;13.80;80.80;;;;;;5017534;28;20153;-82
2023/01/04 04:11:50;;;;;;;1.95;0.50;;;13.80;80.80;;;;;;5018583;28;20120;-83
2023/01/04 04:14:35;;;;;;;2.05;0.60;;;13.80;80.80;;;;;;5005363;28;20044;-82
2023/01/04 04:17:19;;;;;;;3.67;0.50;;;13.80;80.80;;;;;;5006369;28;20516;-84
2023/01/04 04:20:04;;;;;;;1.75;0.50;;;13.80;80.90;;;;;;5006203;28;20056;-81
2023/01/04 04:22:49;;;;;;;2.55;0.70;;;13.80;81.00;;;;;;5012560;28;20176;-81
2023/01/04 04:25:33;;;;;;;3.55;0.75;;;13.80;81.00;;;;;;5009534;28;20054;-81
2023/01/04 04:28:18;;;;;;;3.22;0.70;;;13.80;81.00;;;;;;5008904;28;20100;-80
2023/01/04 04:31:03;;;;;;;1.30;0.88;;;13.80;81.00;;;;;;5012993;28;20088;-83
2023/01/04 04:33:47;;;;;;;1.58;0.80;;;13.80;81.10;;;;;;5005202;28;20040;-82
2023/01/04 04:36:32;;;;;;;3.45;0.82;;;13.80;81.10;;;;;;5001498;28;20120;-82
2023/01/04 04:39:17;;;;;;;1.67;0.80;;;13.80;81.10;;;;;;5013705;28;20044;-81
2023/01/04 04:42:02;;;;;;;2.08;0.60;;;13.80;81.20;;;;;;5013930;28;20048;-82
2023/01/04 04:44:46;;;;;;;1.80;0.73;;;13.80;81.20;;;;;;5000547;28;20101;-81
2023/01/04 04:47:31;;;;;;;1.60;0.63;;;13.70;81.00;;;;;;5008094;28;20068;-83
2023/01/04 04:50:15;;;;;;;2.92;0.80;;;13.70;81.00;;;;;;4997836;28;20464;-84
2023/01/04 04:53:00;;;;;;;1.40;0.60;;;13.70;81.00;;;;;;5018660;28;20084;-83
2023/01/04 04:55:45;;;;;;;2.63;0.88;;;13.70;81.10;;;;;;5002087;28;20040;-83
2023/01/04 04:58:29;;;;;;;2.42;0.60;;;13.70;81.10;;;;;;5002222;28;20044;-83
2023/01/04 05:01:15;;;;;;;2.13;0.60;;;13.70;81.10;;;;;;5012603;28;20061;-84
2023/01/04 05:03:59;;;;;;;3.25;0.98;;;13.80;81.20;;;;;;5004851;28;20053;-82
2023/01/04 05:06:45;;;;;;;1.77;0.60;;;13.80;81.20;;;;;;5001553;28;20688;-83
2023/01/04 05:09:30;;;;;;;3.30;0.98;;;13.70;81.00;;;;;;5017907;28;20032;-82
2023/01/04 05:15:20;;;;;;;2.78;1.13;;;13.70;81.00;;;;;;5008262;28;20044;-83
2023/01/04 05:18:06;;;;;;;2.78;0.90;;;13.70;81.00;;;;;;4994096;28;20041;-84
2023/01/04 05:20:51;;;;;;;3.45;0.80;;;13.70;81.50;;;;;;5002920;28;20111;-82
2023/01/04 05:23:35;;;;;;;4.57;1.00;;;13.70;81.10;;;;;;5005837;28;20052;-83
2023/01/04 05:26:20;;;;;;;3.15;0.70;;;13.70;81.10;;;;;;5019888;28;20052;-82
2023/01/04 05:29:05;;;;;;;3.35;1.05;;;13.70;81.10;;;;;;5007282;28;20047;-82
2023/01/04 05:31:49;;;;;;;1.95;0.70;;;13.70;81.20;;;;;;5023172;28;20080;-82
2023/01/04 05:34:34;;;;;;;2.55;1.20;;;13.70;81.20;;;;;;5013787;28;20099;-83
2023/01/04 05:37:18;;;;;;;2.85;0.75;;;13.70;81.20;;;;;;5019136;28;20096;-83
2023/01/04 05:40:04;;;;;;;2.25;0.68;;;13.70;81.20;;;;;;5005654;28;20052;-84
2023/01/04 05:42:48;;;;;;;4.28;0.80;;;13.70;81.20;;;;;;5009333;28;20032;-82
2023/01/04 05:45:34;;;;;;;5.10;0.90;;;13.60;81.10;;;;;;5008662;28;20056;-82
2023/01/04 05:48:19;;;;;;;5.00;0.80;;;13.70;81.30;;;;;;4995155;28;20708;-81
2023/01/04 05:51:03;;;;;;;6.68;1.40;;;13.70;81.30;;;;;;5009963;28;20904;-82
2023/01/04 05:53:48;;;;;;;5.50;1.40;;;13.70;81.40;;;;;;5004774;28;20052;-82
2023/01/04 05:56:32;;;;;;;5.40;1.58;;;13.70;81.30;;;;;;5001348;28;20081;-83
2023/01/04 05:59:17;;;;;;;8.65;2.15;;;13.70;81.30;;;;;;5001720;28;20093;-81
2023/01/04 06:02:02;;;;;;;9.48;1.73;;;13.70;81.40;;;;;;5001205;28;20500;-82
2023/01/04 06:04:48;;;;;;;9.30;1.70;;;13.70;81.40;;;;;;5019761;28;20149;-82
2023/01/04 06:07:32;;;;;;;7.43;1.65;;;13.70;81.40;;;;;;5008220;28;20044;-82
2023/01/04 06:10:18;;;;;;;11.15;3.13;;;13.70;81.30;;;;;;5007402;28;20052;-83
2023/01/04 06:13:02;;;;;;;11.02;2.17;;;13.70;81.30;;;;;;5004990;28;20176;-83
2023/01/04 06:15:46;;;;;;;12.63;2.83;;;13.70;81.30;;;;;;5010278;28;20507;-82
2023/01/04 06:18:31;;;;;;;12.40;2.55;;;13.70;81.30;;;;;;5002904;28;20049;-83
2023/01/04 06:21:16;;;;;;;8.55;2.33;;;13.70;81.30;;;;;;5003203;28;20044;-82
2023/01/04 06:24:00;;;;;;;8.55;2.95;;;13.70;81.30;;;;;;5008240;28;20049;-82
2023/01/04 06:26:45;;;;;;;11.48;3.55;;;13.70;81.20;;;;;;5028531;28;20126;-79
2023/01/04 06:29:31;;;;;;;12.95;3.10;;;13.70;81.30;;;;;;5002412;28;20042;-88
2023/01/04 06:32:16;;;;;;;9.95;2.65;;;13.70;81.20;;;;;;5011144;28;20076;-91
2023/01/04 06:35:00;;;;;;;16.25;3.35;;;13.70;81.20;;;;;;5003641;28;20064;-86
2023/01/04 06:37:45;;;;;;;11.70;3.85;;;13.70;81.20;;;;;;5001134;28;20065;-87
2023/01/04 06:40:29;;;;;;;14.25;3.58;;;13.70;81.20;;;;;;5003175;28;20137;-86
2023/01/04 06:43:14;;;;;;;17.23;3.95;;;13.70;81.30;;;;;;5014873;28;20050;-77
2023/01/04 06:46:00;;;;;;;13.88;3.85;;;13.70;81.20;;;;;;5003101;28;20091;-85
2023/01/04 06:48:44;;;;;;;11.50;3.40;;;13.60;81.00;;;;;;5001142;28;20084;-92
2023/01/04 06:51:29;;;;;;;14.35;4.15;;;13.60;81.10;;;;;;5002423;28;20088;-89
2023/01/04 06:54:14;;;;;;;13.40;3.67;;;13.60;81.00;;;;;;5001967;28;20061;-93
2023/01/04 06:56:58;;;;;;;25.75;5.90;;;13.60;81.50;;;;;;5008587;28;20072;-89
2023/01/04 06:59:43;;;;;;;20.67;5.53;;;13.60;81.00;;;;;;5013797;28;20045;-93
2023/01/04 07:02:27;;;;;;;23.92;5.07;;;13.60;81.00;;;;;;5014261;28;20075;-93
2023/01/04 07:05:12;;;;;;;19.20;4.72;;;13.60;80.90;;;;;;5007968;28;20092;-90
2023/01/04 07:08:00;;;;;;;17.60;4.30;;;13.60;80.90;;;;;;5015404;28;20409;-79
2023/01/04 07:10:45;;;;;;;19.95;5.20;;;13.60;80.90;;;;;;4995826;28;20129;-80
2023/01/04 07:13:30;;;;;;;20.35;5.10;;;13.60;80.90;;;;;;4998720;28;20165;-81
2023/01/04 07:16:14;;;;;;;18.65;5.18;;;13.60;80.90;;;;;;5003991;28;20457;-83
2023/01/04 07:18:59;;;;;;;21.20;4.53;;;13.60;80.90;;;;;;5012236;28;20054;-92
2023/01/04 07:21:44;;;;;;;19.85;6.70;;;13.70;81.00;;;;;;4996767;28;20125;-89
2023/01/04 07:24:28;;;;;;;17.73;4.97;;;13.70;81.00;;;;;;5018460;28;20085;-86
2023/01/04 07:27:13;;;;;;;25.67;5.57;;;13.70;80.90;;;;;;5003512;28;20040;-90
2023/01/04 07:29:57;;;;;;;21.05;4.60;;;13.70;80.90;;;;;;5003678;28;20081;-89
2023/01/04 07:32:42;;;;;;;26.30;6.40;;;13.70;80.80;;;;;;5014909;28;20049;-89
2023/01/04 07:35:27;;;;;;;23.92;5.57;;;13.70;80.80;;;;;;5001372;28;20048;-84
2023/01/04 07:38:11;;;;;;;19.23;5.05;;;13.70;80.80;;;;;;5004726;28;20045;-83
2023/01/04 07:40:56;;;;;;;22.20;4.85;;;13.70;80.80;;;;;;5021174;28;20405;-83
2023/01/04 07:43:41;;;;;;;19.85;5.50;;;13.70;80.80;;;;;;5016193;28;20133;-83
2023/01/04 07:46:26;;;;;;;26.58;7.28;;;13.70;80.70;;;;;;5029264;28;20112;-83
2023/01/04 07:49:13;;;;;;;25.35;6.05;;;13.70;80.70;;;;;;5018855;28;20045;-85
2023/01/04 07:51:57;;;;;;;20.98;4.88;;;13.70;80.70;;;;;;5005152;28;20573;-83
2023/01/04 07:54:42;;;;;;;26.92;6.40;;;13.60;80.50;;;;;;5003595;28;20054;-92
2023/01/04 07:57:27;;;;;;;26.42;6.78;;;13.60;80.40;;;;;;5010382;28;20044;-89
2023/01/04 08:00:12;;;;;;;20.92;5.32;;;13.60;80.40;;;;;;4999366;28;20225;-86
2023/01/04 08:02:56;;;;;;;25.75;5.65;;;13.70;80.60;;;;;;5012063;28;20407;-86
2023/01/04 08:05:41;;;;;;;31.63;9.20;;;13.70;80.60;;;;;;5006934;28;20053;-84
2023/01/04 08:08:26;;;;;;;30.05;6.80;;;13.60;80.40;;;;;;5006556;28;20048;-86
2023/01/04 08:11:17;;;;;;;24.20;5.95;;;13.60;80.40;;;;;;5013887;28;20040;-86
2023/01/04 08:14:01;;;;;;;23.95;6.60;;;13.60;80.40;;;;;;5006362;28;20052;-79
2023/01/04 08:16:46;;;;;;;22.83;7.05;;;13.60;80.30;;;;;;5003200;28;20068;-95
2023/01/04 08:19:30;;;;;;;18.25;5.18;;;13.60;80.50;;;;;;5000977;28;20036;-82
2023/01/04 08:22:15;;;;;;;19.42;6.13;;;13.70;81.20;;;;;;5002652;28;20057;-83
2023/01/04 08:25:00;;;;;;;20.15;5.35;;;13.80;81.40;;;;;;5003100;28;20052;-86
2023/01/04 08:27:45;;;;;;;16.65;4.90;;;14.00;81.60;;;;;;5008884;28;20745;-82
2023/01/04 08:30:29;;;;;;;18.85;5.07;;;14.00;81.50;;;;;;5015998;28;20091;-84
2023/01/04 08:33:15;;;;;;;18.30;4.50;;;14.20;81.70;;;;;;5010107;28;20052;-83
2023/01/04 08:36:08;;;;;;;21.65;5.00;;;14.20;81.60;;;;;;5011051;28;20040;-80
2023/01/04 08:38:55;;;;;;;21.92;5.70;;;14.30;81.70;;;;;;5003405;28;20576;-82
2023/01/04 08:41:52;;;;;;;23.67;5.78;;;14.40;81.70;;;;;;5005322;28;20041;-81
2023/01/04 08:44:37;;;;;;;17.60;4.65;;;14.50;81.70;;;;;;4989535;28;20056;-77
2023/01/04 08:47:21;;;;;;;23.42;6.60;;;14.60;81.80;;;;;;5013659;28;20456;-86
2023/01/04 08:50:06;;;;;;;19.30;5.32;;;14.60;82.20;;;;;;5008921;28;20077;-84
2023/01/04 08:52:51;;;;;;;25.25;6.07;;;14.70;81.70;;;;;;5008128;28;20200;-84
2023/01/04 08:55:35;;;;;;;28.42;6.70;;;14.70;81.50;;;;;;5006423;28;20041;-88
2023/01/04 08:58:21;;;;;;;25.63;6.00;;;14.70;81.40;;;;;;5009768;28;20076;-83
2023/01/04 09:01:09;;;;;;;19.80;5.40;;;14.60;81.10;;;;;;5006906;28;20311;-85
2023/01/04 09:03:55;;;;;;;21.15;5.80;;;14.60;81.00;;;;;;5011171;28;20115;-85
2023/01/04 09:06:40;;;;;;;24.92;6.18;;;14.60;81.00;;;;;;5004159;28;20092;-85
2023/01/04 09:09:24;;;;;;;22.55;6.35;;;14.60;81.00;;;;;;5006669;28;20045;-93
2023/01/04 09:12:09;;;;;;;23.63;5.63;;;14.60;80.90;;;;;;4993261;28;20129;-80
2023/01/04 09:14:53;;;;;;;25.90;6.75;;;14.50;80.70;;;;;;4995935;28;20407;-80
2023/01/04 09:17:38;;;;;;;23.35;7.35;;;14.50;80.60;;;;;;5004787;28;20102;-88
2023/01/04 09:20:22;;;;;;;25.55;7.45;;;14.50;80.50;;;;;;5005824;28;20133;-92
2023/01/04 09:23:07;;;;;;;27.23;5.97;;;14.50;80.50;;;;;;5005360;28;20404;-82
2023/01/04 09:25:52;;;;;;;22.35;5.10;;;14.40;80.40;;;;;;5003700;28;20136;-85
2023/01/04 09:28:37;;;;;;;27.90;6.78;;;14.50;81.00;;;;;;5003195;28;20127;-82
2023/01/04 09:31:27;;;;;;;21.52;5.93;;;14.70;81.40;;;;;;5004030;28;20141;-85
2023/01/04 09:34:13;;;;;;;20.50;6.30;;;14.90;81.60;;;;;;4995136;28;20085;-83
2023/01/04 09:36:58;;;;;;;18.50;6.20;;;15.00;81.50;;;;;;5002757;28;20033;-85
2023/01/04 09:39:43;;;;;;;17.05;5.97;;;15.20;81.40;;;;;;5002215;28;20135;-84
2023/01/04 09:42:37;;;;;;;15.63;5.35;;;15.30;81.20;;;;;;5000309;28;20061;-85
2023/01/04 09:45:25;;;;;;;19.42;5.15;;;15.50;81.20;;;;;;4996645;28;20643;-83
2023/01/04 09:48:31;;;;;;;19.52;5.15;;;15.60;81.00;;;;;;5001087;28;20347;-84
2023/01/04 09:51:18;;;;;;;23.73;6.18;;;15.80;81.00;;;;;;4993427;28;20500;-84
2023/01/04 09:54:19;;;;;;;27.42;6.93;;;16.00;80.90;;;;;;5008616;28;20089;-88
2023/01/04 09:57:05;;;;;;;23.02;6.55;;;16.10;80.60;;;;;;5006663;28;20084;-84
2023/01/04 09:59:55;;;;;;;25.05;7.35;;;16.30;80.40;;;;;;5009144;28;20851;-81
2023/01/04 10:02:51;;;;;;;24.33;6.28;;;16.50;80.10;;;;;;5008709;28;20068;-82
2023/01/04 10:05:36;;;;;;;23.45;7.43;;;16.60;79.80;;;;;;5007396;28;20048;-85
2023/01/04 10:08:21;;;;;;;28.70;6.90;;;16.60;79.70;;;;;;5002495;28;20041;-81
2023/01/04 10:11:24;;;;;;;33.90;7.65;;;16.60;79.50;;;;;;5003906;28;20053;-88
2023/01/04 10:14:27;;;;;;;31.30;7.07;;;16.60;79.30;;;;;;5006760;28;20049;-84
2023/01/04 10:17:31;;;;;;;29.63;6.68;;;16.60;79.20;;;;;;5003647;28;20046;-86
2023/01/04 10:20:42;;;;;;;21.95;5.95;;;16.60;79.10;;;;;;5009217;28;20072;-86
2023/01/04 10:23:50;;;;;;;29.00;6.93;;;16.60;79.10;;;;;;4996534;28;20176;-85
2023/01/04 10:26:45;;;;;;;31.95;7.30;;;16.50;78.80;;;;;;5003586;28;20052;-85
2023/01/04 10:29:58;;;;;;;29.67;7.13;;;16.50;78.80;;;;;;4998062;28;20449;-85
2023/01/04 10:32:44;;;;;;;25.65;6.28;;;16.50;78.70;;;;;;5010233;28;20052;-88
2023/01/04 10:35:32;;;;;;;26.88;7.82;;;16.50;78.70;;;;;;5011219;28;20528;-88
2023/01/04 10:38:19;;;;;;;27.05;7.38;;;16.60;78.70;;;;;;5007746;28;20071;-88
2023/01/04 10:41:09;;;;;;;32.38;7.78;;;16.60;78.60;;;;;;5005181;28;20161;-91
2023/01/04 10:43:57;;;;;;;27.85;7.70;;;16.60;78.50;;;;;;5010556;28;20083;-88
2023/01/04 10:47:01;;;;;;;35.72;8.95;;;16.60;78.40;;;;;;5005656;28;20127;-86
2023/01/04 10:49:59;;;;;;;29.75;8.68;;;16.60;78.20;;;;;;4998051;28;20052;-86
2023/01/04 10:52:51;;;;;;;32.20;7.72;;;16.60;78.20;;;;;;5010180;28;20060;-86
2023/01/04 10:55:50;;;;;;;26.25;6.75;;;16.50;78.00;;;;;;4989716;28;20037;-87
2023/01/04 10:58:45;;;;;;;26.55;7.10;;;16.60;78.10;;;;;;5010251;28;20049;-85
2023/01/04 11:01:55;;;;;;;26.88;7.57;;;16.50;77.90;;;;;;4998477;28;20394;-87
2023/01/04 11:04:48;;;;;;;37.80;9.68;;;16.50;77.80;;;;;;4993483;28;20052;-89
2023/01/04 11:07:40;;;;;;;31.55;8.50;;;16.50;77.80;;;;;;4992692;28;20045;-86
2023/01/04 11:10:30;;;;;;;34.85;7.72;;;16.50;77.80;;;;;;4992577;28;20285;-87
2023/01/04 11:13:15;;;;;;;26.25;7.82;;;16.40;77.70;;;;;;4992169;28;20037;-87
2023/01/04 11:16:01;;;;;;;37.08;9.55;;;16.40;77.60;;;;;;5015910;28;20048;-87
2023/01/04 11:18:48;;;;;;;29.35;7.72;;;16.40;77.60;;;;;;5003989;28;20091;-87
2023/01/04 11:21:38;;;;;;;32.10;8.60;;;16.50;77.60;;;;;;4995357;28;20053;-86
2023/01/04 11:24:23;;;;;;;29.95;9.02;;;16.50;77.50;;;;;;5000510;28;20080;-87
2023/01/04 11:27:15;;;;;;;31.58;8.07;;;16.50;77.30;;;;;;5009053;28;20069;-94
2023/01/04 11:30:04;;;;;;;27.50;8.60;;;16.60;77.20;;;;;;5015950;28;20048;-94
2023/01/04 11:33:03;;;;;;;29.95;8.05;;;16.60;77.10;;;;;;5017622;28;20113;-88
2023/01/04 11:35:51;;;;;;;31.33;7.65;;;16.70;77.10;;;;;;5012142;28;20178;-95
2023/01/04 11:38:36;;;;;;;26.70;6.63;;;16.70;77.00;;;;;;5015795;28;20091;-90
2023/01/04 11:41:20;;;;;;;27.23;8.45;;;16.70;76.90;;;;;;5003324;28;20083;-90
2023/01/04 11:44:05;;;;;;;32.15;6.72;;;16.70;76.70;;;;;;5007930;28;20037;-87
2023/01/04 11:47:19;;;;;;;26.58;7.43;;;16.80;76.90;;;;;;5008925;28;20153;-83
2023/01/04 11:50:04;;;;;;;24.42;8.35;;;16.80;76.60;;;;;;5019679;28;20060;-90
2023/01/04 11:52:49;;;;;;;24.90;6.70;;;16.80;76.60;;;;;;5014974;28;20058;-89
2023/01/04 11:55:34;;;;;;;21.75;6.60;;;16.80;76.50;;;;;;5005211;28;20100;-95
2023/01/04 11:58:19;;;;;;;20.10;5.45;;;16.80;76.30;;;;;;5028512;28;20033;-94
2023/01/04 12:01:04;;;;;;;21.35;6.05;;;16.80;76.20;;;;;;5005120;28;20096;-86
2023/01/04 12:03:50;;;;;;;17.98;5.85;;;16.80;76.10;;;;;;5022699;28;20046;-85
2023/01/04 12:06:40;;;;;;;19.45;5.82;;;16.80;76.10;;;;;;5006584;28;20045;-87
2023/01/04 12:09:25;;;;;;;22.95;5.30;;;16.90;76.30;;;;;;5012081;28;20049;-87
2023/01/04 12:12:11;;;;;;;22.95;6.35;;;16.90;76.20;;;;;;5015011;28;20405;-82
2023/01/04 12:14:59;;;;;;;28.95;6.93;;;16.90;76.20;;;;;;5023878;28;20153;-91
2023/01/04 12:18:03;;;;;;;18.05;4.93;;;17.10;76.60;;;;;;5010648;28;20060;-88
2023/01/04 12:20:47;;;;;;;;;;;17.20;76.70;;;;;;5011158;28;20069;-81
2023/01/04 12:23:33;;;;;;;29.80;7.75;;;17.30;76.60;;;;;;5010363;28;20344;-86
2023/01/04 12:26:18;;;;;;;23.73;6.28;;;17.30;76.40;;;;;;5005338;28;20116;-85
2023/01/04 12:29:23;;;;;;;27.05;6.38;;;17.30;76.40;;;;;;5000626;28;20048;-83
2023/01/04 12:32:11;;;;;;;27.88;7.03;;;17.30;76.20;;;;;;5019424;28;20056;-81
2023/01/04 12:34:55;;;;;;;34.88;7.57;;;17.30;76.30;;;;;;5008362;28;20164;-82
2023/01/04 12:37:44;;;;;;;26.92;7.40;;;17.30;76.30;;;;;;5020163;28;20095;-87
2023/01/04 12:40:44;;;;;;;25.00;6.97;;;17.30;76.20;;;;;;5010666;28;20559;-85
2023/01/04 12:43:36;;;;;;;34.33;11.05;;;17.30;76.10;;;;;;5015763;28;20060;-83
2023/01/04 12:49:30;;;;;;;35.13;9.45;;;17.20;76.40;;;;;;5010056;28;20081;-86
2023/01/04 12:52:14;;;;;;;26.23;6.90;;;17.20;75.90;;;;;;4988687;28;20114;-86
2023/01/04 12:55:03;;;;;;;31.23;6.85;;;17.20;75.90;;;;;;5002825;28;20044;-91
2023/01/04 12:57:48;;;;;;;28.65;8.32;;;17.20;75.80;;;;;;4990406;28;20068;-86
2023/01/04 13:00:51;;;;;;;27.80;8.25;;;17.20;75.80;;;;;;5010962;28;20052;-84
2023/01/04 13:03:46;;;;;;;29.77;6.93;;;17.30;75.80;;;;;;5013041;28;20044;-85
2023/01/04 13:06:38;;;;;;;29.77;8.50;;;17.30;75.70;;;;;;5025299;28;20056;-91
2023/01/04 13:09:22;;;;;;;32.03;7.68;;;17.30;75.60;;;;;;5011957;28;20110;-87
2023/01/04 13:12:34;;;;;;;31.17;7.60;;;17.30;75.50;;;;;;5014413;28;20056;-93
2023/01/04 13:15:26;;;;;;;30.40;8.27;;;17.40;75.50;;;;;;5005865;28;20488;-90
2023/01/04 13:18:46;;;;;;;21.75;6.82;;;17.40;75.50;;;;;;5011513;28;20048;-90
2023/01/04 13:21:40;;;;;;;27.45;8.00;;;17.50;75.50;;;;;;4998900;28;20033;-92
2023/01/04 13:24:36;;;;;;;26.75;8.40;;;17.50;75.30;;;;;;5025610;28;20119;-89
2023/01/04 13:27:22;;;;;;;26.83;7.18;;;17.50;75.00;;;;;;5011206;28;20044;-87
2023/01/04 13:30:34;;;;;;;30.45;7.55;;;17.60;75.10;;;;;;5016557;28;20129;-86
2023/01/04 13:33:22;;;;;;;32.13;8.23;;;17.60;74.80;;;;;;5007911;28;20048;-86
2023/01/04 13:36:11;;;;;;;28.20;7.93;;;17.70;74.90;;;;;;5007133;28;20068;-92
2023/01/04 13:38:55;;;;;;;28.00;7.53;;;17.70;74.70;;;;;;5002938;28;20048;-83
2023/01/04 13:41:42;;;;;;;34.05;6.78;;;17.70;74.70;;;;;;5006513;28;20045;-87
2023/01/04 13:44:30;;;;;;;32.55;8.23;;;17.60;74.40;;;;;;5006042;28;20397;-92
2023/01/04 13:47:14;;;;;;;28.35;7.85;;;17.70;74.60;;;;;;5002746;28;20048;-88
2023/01/04 13:50:00;;;;;;;34.50;9.05;;;17.70;74.50;;;;;;5000346;28;20596;-84
2023/01/04 13:52:45;;;;;;;34.35;8.27;;;17.70;74.30;;;;;;5004219;28;20084;-89
2023/01/04 13:55:31;;;;;;;29.52;8.13;;;17.70;74.20;;;;;;4994641;28;20377;-89
2023/01/04 13:58:19;;;;;;;29.80;8.32;;;17.70;74.10;;;;;;5005967;28;20041;-89
2023/01/04 14:01:35;;;;;;;29.55;7.97;;;17.70;73.90;;;;;;5012708;28;20582;-88
2023/01/04 14:04:27;;;;;;;29.15;7.35;;;17.80;74.00;;;;;;5005314;28;20036;-85
2023/01/04 14:07:18;;;;;;;31.50;9.68;;;17.70;74.30;;;;;;4999217;28;20048;-85
2023/01/04 14:10:02;;;;;;;35.67;9.15;;;17.70;73.70;;;;;;5019509;28;20032;-84
2023/01/04 14:12:47;;;;;;;29.20;7.35;;;17.80;73.80;;;;;;5008825;28;20161;-85
2023/01/04 14:15:32;;;;;;;31.92;8.52;;;17.70;73.70;;;;;;5008541;28;20100;-84
2023/01/04 14:18:28;;;;;;;37.75;9.25;;;17.60;73.50;;;;;;5001012;28;20069;-86
2023/01/04 14:21:17;;;;;;;30.38;8.40;;;17.60;73.50;;;;;;5003395;28;20048;-85
2023/01/04 14:24:01;;;;;;;36.38;10.43;;;17.60;73.60;;;;;;5003435;28;20044;-82
2023/01/04 14:26:46;;;;;;;29.38;8.43;;;17.50;73.60;;;;;;4997406;28;20121;-89
2023/01/04 14:29:31;;;;;;;31.65;8.35;;;17.40;73.60;;;;;;5000997;28;20041;-86
2023/01/04 14:32:15;;;;;;;36.40;8.45;;;17.40;73.70;;;;;;4996498;28;20489;-88
2023/01/04 14:35:10;;;;;;;30.38;7.78;;;17.40;73.70;;;;;;5007339;28;20040;-86
2023/01/04 14:38:01;;;;;;;26.63;7.20;;;17.40;73.60;;;;;;4993391;28;20053;-84
2023/01/04 14:40:46;;;;;;;35.90;9.43;;;17.40;73.70;;;;;;4994750;28;20276;-86
2023/01/04 14:43:46;;;;;;;27.67;7.93;;;17.30;73.60;;;;;;5003246;28;20041;-84
2023/01/04 14:46:31;;;;;;;33.53;9.50;;;17.30;73.70;;;;;;5003321;28;20064;-85
2023/01/04 14:49:16;;;;;;;24.38;7.40;;;17.30;73.70;;;;;;5003767;28;20081;-86
2023/01/04 14:52:08;;;;;;;25.52;8.20;;;17.20;73.60;;;;;;5004304;28;20405;-86
2023/01/04 14:54:52;;;;;;;27.65;7.03;;;17.20;73.70;;;;;;5010356;28;20040;-83
2023/01/04 14:57:42;;;;;;;27.27;8.00;;;17.20;73.70;;;;;;4990910;28;20041;-82
2023/01/04 15:00:26;;;;;;;28.27;8.68;;;17.10;73.60;;;;;;5006887;28;20065;-85
2023/01/04 15:03:11;;;;;;;29.10;8.23;;;17.10;73.70;;;;;;5007025;28;20053;-86
2023/01/04 15:05:55;;;;;;;31.08;7.70;;;17.10;73.70;;;;;;5011461;28;20321;-83
2023/01/04 15:08:40;;;;;;;33.95;8.70;;;17.00;73.60;;;;;;5008908;28;20174;-89
2023/01/04 15:11:24;;;;;;;32.20;9.45;;;17.00;73.70;;;;;;5010892;28;20076;-81
2023/01/04 15:14:09;;;;;;;37.83;9.13;;;17.00;73.80;;;;;;4996589;28;20041;-83